Time;durP1;ratioP1;P1;durP2;ratioP2;P2;SDS_P1;SDS_P2;PMS_P1;PMS_P2;Temp;Humidity;BMP_temperature;BMP_pressure;BME280_temperature;BME280_humidity;BME280_pressure;Samples;Min_cycle;Max_cycle;Signal;HPM_P1;HPM_P2
2023/01/11 00:07:18;;;;;;;8.90;2.63;;;10.50;99.90;;;;;;20465514;28;20035;-41
2023/01/11 00:17:19;;;;;;;4.00;2.17;;;10.50;99.90;;;;;;20465417;28;20044;-41
2023/01/11 00:27:20;;;;;;;3.95;2.17;;;10.60;99.90;;;;;;20467338;28;20071;-41
2023/01/11 00:37:21;;;;;;;4.45;1.75;;;10.60;99.90;;;;;;20476644;28;21130;-42
2023/01/11 00:57:41;;;;;;;4.18;2.17;;;10.70;99.90;;;;;;20470434;28;20607;-42
2023/01/11 01:07:43;;;;;;;3.25;1.73;;;10.70;99.90;;;;;;20480082;28;20051;-41
2023/01/11 01:17:45;;;;;;;2.55;1.58;;;10.80;99.90;;;;;;20474862;28;20110;-41
2023/01/11 01:27:46;;;;;;;4.30;1.70;;;10.90;99.90;;;;;;20480535;28;20122;-41
2023/01/11 01:37:48;;;;;;;3.33;1.65;;;11.00;99.90;;;;;;20476592;28;20054;-42
2023/01/11 01:47:58;;;;;;;3.95;1.38;;;11.00;99.90;;;;;;20470193;28;20211;-41
2023/01/11 01:58:03;;;;;;;3.85;1.98;;;11.10;99.90;;;;;;20459161;28;20477;-41
2023/01/11 02:08:09;;;;;;;2.83;1.35;;;11.20;99.90;;;;;;20479781;28;20047;-42
2023/01/11 02:18:12;;;;;;;4.72;2.75;;;11.10;99.90;;;;;;20476145;28;20035;-41
2023/01/11 02:28:30;;;;;;;3.70;1.58;;;11.10;99.90;;;;;;20473753;28;20066;-42
2023/01/11 02:38:34;;;;;;;;;;;11.10;99.90;;;;;;20478043;28;20931;-41
2023/01/11 02:49:00;;;;;;;3.60;1.27;;;11.10;99.90;;;;;;20470965;28;19962;-42
2023/01/11 02:59:03;;;;;;;2.75;1.67;;;11.20;99.90;;;;;;20475152;28;20043;-42
2023/01/11 03:09:27;;;;;;;2.20;1.20;;;11.10;99.90;;;;;;20470406;28;20055;-42
2023/01/11 03:19:34;;;;;;;3.17;1.80;;;11.20;99.90;;;;;;20461535;28;20165;-42
2023/01/11 03:29:43;;;;;;;2.80;1.25;;;11.20;99.90;;;;;;20476282;28;20042;-42
2023/01/11 03:39:59;;;;;;;3.10;0.80;;;11.20;99.90;;;;;;20456288;28;21919;-42
2023/01/11 03:50:05;;;;;;;2.67;1.13;;;11.30;99.90;;;;;;20464769;28;20080;-42
2023/01/11 04:00:07;;;;;;;4.05;1.75;;;11.30;99.90;;;;;;20465761;28;20137;-43
2023/01/11 04:10:09;;;;;;;8.88;1.90;;;11.40;99.90;;;;;;20448624;28;20109;-42
2023/01/11 04:20:11;;;;;;;7.35;2.95;;;11.40;99.90;;;;;;20466074;28;20077;-42
2023/01/11 04:30:12;;;;;;;4.13;2.03;;;11.40;99.90;;;;;;20463917;28;20184;-42
2023/01/11 04:40:15;;;;;;;3.58;1.58;;;11.40;99.90;;;;;;20462835;28;20067;-42
2023/01/11 04:50:16;;;;;;;4.70;0.90;;;11.40;99.90;;;;;;20457713;28;20094;-42
2023/01/11 05:00:17;;;;;;;7.75;2.47;;;11.30;99.90;;;;;;20463939;28;20079;-42
2023/01/11 05:10:18;;;;;;;3.25;1.50;;;11.30;99.90;;;;;;20464247;28;20043;-42
2023/01/11 05:20:19;;;;;;;14.35;2.45;;;11.20;99.90;;;;;;20472981;28;20059;-42
2023/01/11 05:30:20;;;;;;;13.98;2.33;;;11.10;99.90;;;;;;20474266;28;20043;-42
2023/01/11 05:40:21;;;;;;;5.95;1.48;;;11.00;99.90;;;;;;20472395;28;20580;-42
2023/01/11 05:50:22;;;;;;;6.90;1.17;;;11.00;99.90;;;;;;20472893;28;20027;-42
2023/01/11 06:00:23;;;;;;;3.40;1.45;;;10.80;99.90;;;;;;20470565;28;20067;-42
2023/01/11 06:10:24;;;;;;;5.90;2.45;;;10.70;99.90;;;;;;20473851;28;20047;-42
2023/01/11 06:20:25;;;;;;;7.90;2.15;;;10.50;99.90;;;;;;20470655;28;20560;-42
2023/01/11 06:30:26;;;;;;;4.63;1.58;;;10.50;99.90;;;;;;20468177;28;20644;-42
2023/01/11 06:40:28;;;;;;;7.47;1.80;;;10.30;99.90;;;;;;20475006;28;20046;-42
2023/01/11 06:50:29;;;;;;;8.40;0.85;;;10.20;99.90;;;;;;20461534;28;20239;-42
2023/01/11 07:00:31;;;;;;;4.57;1.88;;;10.20;99.90;;;;;;20467920;28;20467;-42
2023/01/11 07:10:32;;;;;;;9.98;1.70;;;10.10;99.90;;;;;;20468650;28;20450;-42
2023/01/11 07:20:33;;;;;;;3.38;1.80;;;10.00;99.90;;;;;;20467391;28;20089;-42
2023/01/11 07:30:37;;;;;;;1.70;0.80;;;9.90;99.90;;;;;;20467412;28;20323;-42
2023/01/11 07:40:38;;;;;;;6.13;2.33;;;9.90;99.90;;;;;;20459457;28;21058;-42
2023/01/11 07:50:40;;;;;;;7.15;2.08;;;9.80;99.90;;;;;;20454205;28;20459;-42
2023/01/11 08:00:42;;;;;;;2.92;1.17;;;9.80;99.90;;;;;;20464270;28;20094;-42
2023/01/11 08:10:43;;;;;;;7.07;1.17;;;9.60;99.90;;;;;;20464771;28;20054;-42
2023/01/11 08:20:44;;;;;;;11.48;1.83;;;9.40;99.90;;;;;;20462038;28;21020;-42
2023/01/11 08:30:45;;;;;;;3.78;1.40;;;9.20;99.90;;;;;;20465412;28;20503;-42
2023/01/11 08:40:46;;;;;;;2.92;1.23;;;9.10;99.90;;;;;;20464160;28;20513;-42
2023/01/11 08:50:47;;;;;;;6.28;1.67;;;8.90;99.90;;;;;;20465863;28;20502;-43
2023/01/11 09:00:48;;;;;;;12.52;3.13;;;8.80;99.90;;;;;;20481678;28;21464;-42
2023/01/11 09:10:49;;;;;;;12.65;1.42;;;8.80;99.90;;;;;;20480983;28;20051;-42
2023/01/11 09:20:50;;;;;;;4.93;2.13;;;9.00;99.90;;;;;;20477456;28;20070;-42
2023/01/11 09:30:52;;;;;;;10.60;2.63;;;9.10;99.90;;;;;;20468654;28;20481;-42
2023/01/11 09:41:23;;;;;;;11.57;2.35;;;9.30;99.90;;;;;;20433378;28;20130;-43
2023/01/11 09:51:32;;;;;;;5.82;2.40;;;9.50;99.90;;;;;;20461300;28;20126;-42
2023/01/11 10:01:39;;;;;;;14.90;2.53;;;9.50;99.90;;;;;;20468767;28;20088;-42
2023/01/11 10:12:00;;;;;;;6.90;2.50;;;9.70;99.90;;;;;;20475256;28;20905;-43
2023/01/11 10:22:15;;;;;;;4.07;1.40;;;9.90;99.90;;;;;;20458926;28;20076;-42
2023/01/11 10:33:09;;;;;;;11.23;2.10;;;10.10;95.20;;;;;;20470430;28;20407;-43
2023/01/11 10:43:19;;;;;;;19.52;2.08;;;10.40;90.30;;;;;;20448894;28;20302;-43
2023/01/11 10:53:38;;;;;;;4.85;1.92;;;10.70;88.90;;;;;;20471281;28;20039;-42
2023/01/11 11:03:45;;;;;;;6.47;2.28;;;10.70;84.30;;;;;;20442358;28;20895;-42
2023/01/11 11:14:08;;;;;;;4.40;1.90;;;10.60;83.70;;;;;;20473978;28;20551;-43
2023/01/11 11:24:42;;;;;;;4.93;2.17;;;10.60;81.20;;;;;;20486482;28;20117;-43
2023/01/11 11:34:48;;;;;;;5.78;1.88;;;10.30;82.00;;;;;;20487071;28;21875;-42
2023/01/11 11:45:08;;;;;;;7.83;2.40;;;10.20;82.20;;;;;;20481164;28;20066;-42
2023/01/11 11:55:13;;;;;;;16.30;2.60;;;10.40;83.50;;;;;;20479609;28;20557;-43
2023/01/11 12:05:14;;;;;;;3.75;1.67;;;10.40;78.20;;;;;;20483070;28;20427;-42
2023/01/11 12:15:15;;;;;;;8.60;1.65;;;10.60;76.00;;;;;;20487660;28;20107;-42
2023/01/11 12:25:16;;;;;;;12.15;2.75;;;10.90;69.80;;;;;;20481321;28;20130;-43
2023/01/11 12:35:32;;;;;;;4.75;1.85;;;10.90;66.80;;;;;;20456516;28;20039;-42
2023/01/11 12:45:45;;;;;;;3.95;2.13;;;10.80;62.00;;;;;;20482718;28;20145;-43
2023/01/11 12:56:08;;;;;;;2.70;1.17;;;11.30;60.30;;;;;;20478764;28;20866;-43
2023/01/11 13:06:32;;;;;;;5.05;1.63;;;11.60;58.00;;;;;;20481972;28;20050;-43
2023/01/11 13:17:00;;;;;;;4.28;1.08;;;11.10;59.30;;;;;;20477596;28;20840;-43
2023/01/11 13:27:05;;;;;;;5.80;2.13;;;10.90;59.10;;;;;;20480852;28;21731;-43
2023/01/11 13:37:12;;;;;;;2.05;0.70;;;10.90;58.30;;;;;;20438713;28;20193;-43
2023/01/11 13:47:27;;;;;;;3.45;1.50;;;11.00;58.80;;;;;;20488572;28;20470;-43
2023/01/11 13:57:49;;;;;;;3.90;1.10;;;11.00;55.80;;;;;;20479047;28;20352;-43
2023/01/11 14:08:21;;;;;;;4.88;2.03;;;10.70;57.20;;;;;;20497865;28;21884;-42
2023/01/11 14:18:42;;;;;;;4.55;1.40;;;10.50;57.10;;;;;;20476198;28;20729;-43
2023/01/11 14:29:15;;;;;;;10.15;1.25;;;10.40;57.00;;;;;;20484760;28;20848;-43
2023/01/11 14:39:40;;;;;;;5.82;2.17;;;10.30;54.10;;;;;;20481989;28;20038;-43
2023/01/11 14:49:43;;;;;;;4.70;1.23;;;10.30;59.20;;;;;;20476011;28;21203;-43
2023/01/11 14:59:44;;;;;;;5.53;1.65;;;10.10;62.90;;;;;;20475757;28;20042;-43
2023/01/11 15:09:47;;;;;;;3.45;1.73;;;10.10;64.90;;;;;;20475114;28;20196;-43
2023/01/11 15:19:50;;;;;;;11.00;1.73;;;10.00;65.40;;;;;;20475613;28;20053;-43
2023/01/11 15:29:56;;;;;;;5.53;1.92;;;9.90;64.90;;;;;;20475755;28;20102;-43
2023/01/11 15:40:04;;;;;;;3.60;1.38;;;9.80;68.50;;;;;;20485025;28;20066;-43
2023/01/11 15:50:39;;;;;;;2.03;0.90;;;9.90;67.60;;;;;;20484708;28;20031;-43
2023/01/11 16:00:57;;;;;;;6.22;2.00;;;9.80;63.70;;;;;;20480238;28;21233;-43
2023/01/11 16:11:15;;;;;;;2.92;1.40;;;9.70;64.90;;;;;;20480753;28;20502;-43
2023/01/11 16:21:23;;;;;;;7.00;2.07;;;9.70;65.50;;;;;;20488061;28;20498;-43
2023/01/11 16:31:25;;;;;;;8.40;3.00;;;9.60;69.10;;;;;;20483175;28;21206;-43
2023/01/11 16:41:36;;;;;;;6.78;2.15;;;9.60;71.00;;;;;;20481078;28;20094;-42
2023/01/11 16:51:38;;;;;;;5.80;2.28;;;9.70;68.50;;;;;;20477379;28;21963;-43
2023/01/11 17:01:53;;;;;;;8.40;1.52;;;9.70;66.20;;;;;;20475063;28;20051;-43
2023/01/11 17:11:55;;;;;;;3.13;1.10;;;9.80;63.30;;;;;;20474336;28;20057;-43
2023/01/11 17:22:27;;;;;;;2.58;1.15;;;9.90;62.10;;;;;;20482747;28;20577;-43
2023/01/11 17:32:37;;;;;;;11.23;4.25;;;9.90;62.40;;;;;;20491775;28;20901;-43
2023/01/11 17:53:13;;;;;;;8.02;2.35;;;9.80;66.00;;;;;;20461720;28;20126;-43
2023/01/11 18:03:14;;;;;;;9.90;2.15;;;9.70;66.20;;;;;;20470301;28;20133;-43
2023/01/11 18:13:27;;;;;;;8.27;2.47;;;9.70;67.40;;;;;;20467902;28;20309;-42
2023/01/11 18:23:28;;;;;;;6.85;2.03;;;9.20;90.20;;;;;;20474139;28;20895;-42
2023/01/11 18:33:32;;;;;;;7.78;1.60;;;8.80;96.50;;;;;;20474733;28;20046;-39
2023/01/11 18:43:33;;;;;;;3.65;1.58;;;8.70;99.90;;;;;;20470305;28;20070;-40
2023/01/11 18:53:34;;;;;;;9.85;2.35;;;8.70;99.90;;;;;;20469559;28;20050;-40
2023/01/11 19:03:36;;;;;;;9.60;2.25;;;8.70;99.90;;;;;;20458700;28;20518;-40
2023/01/11 19:13:37;;;;;;;4.72;1.40;;;8.80;99.90;;;;;;20463250;28;20787;-40
2023/01/11 19:23:39;;;;;;;4.88;1.50;;;8.70;99.90;;;;;;20458534;28;20463;-39
2023/01/11 19:33:40;;;;;;;5.78;1.73;;;8.70;99.90;;;;;;20452334;28;20174;-40
2023/01/11 19:43:44;;;;;;;6.47;1.63;;;8.60;99.90;;;;;;20465791;28;20043;-39
2023/01/11 19:53:45;;;;;;;8.75;0.75;;;8.70;99.90;;;;;;20459913;28;20121;-40
2023/01/11 20:03:46;;;;;;;3.60;1.48;;;8.50;99.90;;;;;;20463730;28;20082;-42
2023/01/11 20:13:49;;;;;;;5.38;2.15;;;8.60;99.90;;;;;;20464170;28;20846;-40
2023/01/11 20:23:50;;;;;;;3.72;1.40;;;8.70;99.90;;;;;;20469706;28;20076;-40
2023/01/11 20:33:51;;;;;;;6.30;1.88;;;8.80;99.90;;;;;;20471576;28;20038;-40
2023/01/11 20:43:52;;;;;;;6.78;2.53;;;8.80;99.90;;;;;;20468993;28;20175;-40
2023/01/11 20:53:53;;;;;;;7.82;1.58;;;8.90;99.90;;;;;;20479623;28;20482;-40
2023/01/11 21:03:58;;;;;;;3.80;1.40;;;8.80;99.90;;;;;;20474083;28;20126;-40
2023/01/11 21:14:02;;;;;;;6.00;2.50;;;8.90;99.90;;;;;;20479759;28;20059;-40
2023/01/11 21:24:04;;;;;;;5.43;1.55;;;9.00;99.90;;;;;;20499211;28;20087;-43
2023/01/11 21:34:06;;;;;;;3.78;1.65;;;8.90;99.90;;;;;;20477394;28;20059;-43
2023/01/11 21:44:07;;;;;;;10.75;2.50;;;9.00;99.90;;;;;;20475173;28;20087;-43
2023/01/11 21:54:14;;;;;;;5.68;2.13;;;9.10;99.90;;;;;;20483431;28;20128;-43
2023/01/11 22:04:17;;;;;;;9.32;1.80;;;9.10;99.90;;;;;;20479317;28;20190;-42
2023/01/11 22:14:18;;;;;;;6.03;1.75;;;9.10;99.90;;;;;;20478497;28;20066;-42
2023/01/11 22:24:19;;;;;;;3.05;1.08;;;9.10;99.90;;;;;;20483853;28;20549;-42
2023/01/11 22:34:21;;;;;;;6.72;3.05;;;9.00;99.90;;;;;;20487927;28;20046;-42
2023/01/11 22:44:22;;;;;;;16.98;1.30;;;8.90;99.90;;;;;;20476654;28;20916;-42
2023/01/11 22:54:24;;;;;;;8.52;1.90;;;8.90;99.90;;;;;;20467785;28;20133;-42
2023/01/11 23:04:25;;;;;;;8.55;2.78;;;9.00;99.90;;;;;;20470681;28;20454;-43
2023/01/11 23:14:31;;;;;;;4.00;1.30;;;9.10;99.10;;;;;;20468382;28;20039;-43
2023/01/11 23:24:34;;;;;;;7.55;1.35;;;9.10;99.00;;;;;;20466009;28;20439;-43
2023/01/11 23:34:35;;;;;;;3.78;1.55;;;9.10;99.40;;;;;;20472497;28;20070;-43
2023/01/11 23:44:36;;;;;;;5.70;2.67;;;9.10;99.40;;;;;;20470572;28;20587;-42
2023/01/11 23:54:37;;;;;;;8.07;2.05;;;9.20;99.50;;;;;;20472018;28;20443;-43
